createdAt,value
2022-12-01T06:44:11.184Z,94443.31
2022-12-01T06:49:31.736Z,94451.53
2022-12-01T06:52:01.267Z,94442.88
2022-12-01T07:14:57.303Z,94454.84
2022-12-01T07:17:50.616Z,94458.50
2022-12-01T07:21:15.468Z,94459.97
2022-12-01T07:23:52.524Z,94462.47
2022-12-01T07:27:08.104Z,94461.44
2022-12-01T07:36:14.735Z,94464.72
2022-12-01T07:41:41.749Z,94466.72
2022-12-01T07:54:37.110Z,94469.34
2022-12-01T08:01:02.568Z,94485.00
2022-12-01T08:07:19.652Z,94469.88
2022-12-01T08:09:49.140Z,94478.28
2022-12-01T08:12:36.458Z,94482.63
2022-12-01T08:18:18.265Z,94475.19
2022-12-01T08:20:45.216Z,94475.22
2022-12-01T08:23:12.123Z,94486.91
2022-12-01T08:47:20.792Z,94475.63
2022-12-01T08:49:48.061Z,94481.97
2022-12-01T08:52:15.143Z,94481.22
2022-12-01T08:54:50.734Z,94473.19
2022-12-01T08:57:17.504Z,94470.63
2022-12-01T09:04:27.181Z,94475.44
2022-12-01T09:07:13.771Z,94480.09
2022-12-01T09:20:15.707Z,94495.31
2022-12-01T09:31:10.532Z,94497.94
2022-12-01T09:36:12.297Z,94495.41
2022-12-01T09:39:36.601Z,94493.97
2022-12-01T09:42:18.949Z,94488.28
2022-12-01T09:45:39.566Z,94498.41
2022-12-01T09:49:26.463Z,94496.00
2022-12-01T09:50:43.636Z,94505.78
2022-12-01T09:53:51.502Z,94502.66
2022-12-01T09:56:26.193Z,94503.34
2022-12-01T09:59:16.871Z,94498.44
2022-12-01T10:02:27.755Z,94504.88
2022-12-01T14:19:31.444Z,94422.97
2022-12-01T14:22:32.790Z,94424.53
2022-12-01T14:25:03.854Z,94419.09
2022-12-01T14:27:43.903Z,94422.00
2022-12-01T14:30:42.257Z,94420.66
2022-12-01T14:33:51.793Z,94420.69
2022-12-01T14:36:49.774Z,94416.28
2022-12-01T14:39:36.431Z,94423.09
2022-12-01T14:42:04.707Z,94430.66
2022-12-01T14:44:49.801Z,94431.94
2022-12-01T14:47:29.629Z,94424.91
2022-12-01T14:50:15.699Z,94422.13
2022-12-01T14:52:50.036Z,94422.94
2022-12-01T14:55:24.908Z,94420.38
2022-12-01T14:57:59.681Z,94422.81
2022-12-01T15:00:26.891Z,94414.75
2022-12-01T15:03:01.922Z,94419.22
2022-12-01T15:05:31.192Z,94426.03
2022-12-01T15:08:25.579Z,94421.03
2022-12-01T15:11:24.463Z,94431.03
2022-12-01T15:13:58.478Z,94421.03
2022-12-01T15:16:39.749Z,94431.94
2022-12-01T15:23:19.555Z,94434.50
2022-12-01T15:25:48.722Z,94432.72
2022-12-01T15:28:22.895Z,94431.94
2022-12-01T15:30:54.047Z,94431.06
2022-12-01T15:36:38.672Z,94436.06
2022-12-01T15:39:16.917Z,94435.50
2022-12-01T15:41:51.797Z,94429.81
2022-12-01T15:44:32.962Z,94427.16
2022-12-01T15:47:00.505Z,94436.81
2022-12-01T15:49:32.877Z,94439.81
2022-12-01T15:52:08.889Z,94437.50
2022-12-01T15:54:42.019Z,94429.69
2022-12-01T15:57:18.636Z,94429.50
2022-12-01T15:59:47.256Z,94429.81
2022-12-01T16:26:38.926Z,94437.75
2022-12-01T16:29:19.794Z,94438.09
2022-12-01T16:32:12.481Z,94438.31
2022-12-01T16:34:46.381Z,94436.84
2022-12-01T16:41:18.277Z,94439.28
2022-12-01T16:44:05.356Z,94440.84
2022-12-01T16:46:32.242Z,94438.41
2022-12-01T16:49:00.135Z,94433.81
2022-12-01T16:51:35.544Z,94435.16
2022-12-01T16:54:09.750Z,94434.22
2022-12-01T16:56:36.687Z,94439.69
2022-12-01T16:59:05.476Z,94438.09
2022-12-01T17:01:36.053Z,94447.06
2022-12-01T17:04:17.061Z,94435.31
2022-12-01T17:06:45.739Z,94440.34
2022-12-01T17:09:14.374Z,94439.88
2022-12-01T17:12:01.833Z,94448.00
2022-12-01T17:14:33.998Z,94442.50
2022-12-01T17:17:02.916Z,94436.50
2022-12-01T17:19:29.979Z,94438.28
2022-12-01T17:21:59.317Z,94438.38
2022-12-01T17:24:29.524Z,94438.53
2022-12-01T17:27:06.623Z,94432.53
2022-12-01T17:29:33.792Z,94432.75
2022-12-01T17:32:01.592Z,94428.34
2022-12-01T17:34:36.359Z,94435.66
2022-12-01T17:37:04.261Z,94435.22
2022-12-01T17:39:32.977Z,94434.97
2022-12-01T17:42:01.032Z,94437.66
2022-12-01T17:44:28.587Z,94437.53
2022-12-01T17:46:58.309Z,94431.25
2022-12-01T17:49:46.429Z,94432.84
2022-12-01T17:52:21.293Z,94430.06
2022-12-01T17:54:52.026Z,94434.81
2022-12-01T17:57:20.890Z,94436.06
2022-12-01T17:59:49.106Z,94437.13
2022-12-01T18:02:24.972Z,94434.25
2022-12-01T18:04:56.806Z,94435.50
2022-12-01T18:07:24.491Z,94444.59
2022-12-01T18:09:53.021Z,94442.50
2022-12-01T18:12:20.489Z,94431.41
2022-12-01T18:14:53.211Z,94439.03
2022-12-01T18:17:25.804Z,94442.22
2022-12-01T18:20:10.177Z,94439.19
2022-12-01T18:25:27.688Z,94426.94
2022-12-01T18:27:55.885Z,94434.03
2022-12-01T18:30:22.900Z,94436.16
2022-12-01T18:32:51.087Z,94438.72
2022-12-01T18:35:17.952Z,94433.19
2022-12-01T18:37:46.417Z,94435.75
2022-12-01T18:40:18.312Z,94438.66
2022-12-01T18:42:46.421Z,94432.44
2022-12-01T18:45:21.070Z,94430.84
2022-12-01T18:47:48.809Z,94430.06
2022-12-01T18:50:17.287Z,94428.84
2022-12-01T18:52:44.466Z,94433.38
2022-12-01T18:55:11.905Z,94432.88
2022-12-01T18:57:40.050Z,94435.34
2022-12-01T19:00:24.907Z,94436.06
2022-12-01T19:02:57.788Z,94425.53
2022-12-01T19:05:27.736Z,94427.00
2022-12-01T19:07:57.405Z,94429.97
2022-12-01T19:10:27.302Z,94423.66
2022-12-01T19:12:54.634Z,94423.56
2022-12-01T19:15:25.042Z,94426.03
2022-12-01T19:17:51.949Z,94429.97
2022-12-01T19:20:19.856Z,94426.16
2022-12-01T19:22:47.832Z,94426.34
2022-12-01T19:25:15.883Z,94419.50
2022-12-01T19:27:44.590Z,94418.03
2022-12-01T19:30:13.443Z,94418.00
2022-12-01T19:32:43.160Z,94412.09
2022-12-01T19:35:10.317Z,94426.47
2022-12-01T19:37:37.848Z,94429.19
2022-12-01T19:40:06.191Z,94424.91
2022-12-01T19:42:33.503Z,94423.00
2022-12-01T19:45:03.207Z,94433.91
2022-12-01T19:47:33.695Z,94435.50
2022-12-01T19:50:01.105Z,94428.63
2022-12-01T19:52:29.250Z,94438.72
2022-12-01T19:54:56.127Z,94433.72
2022-12-01T19:57:29.004Z,94440.81
2022-12-01T19:59:56.499Z,94440.06
2022-12-01T20:02:29.651Z,94434.88
2022-12-01T20:04:57.426Z,94444.28
2022-12-01T20:11:19.479Z,94444.09
2022-12-01T20:13:52.361Z,94448.16
2022-12-01T20:16:22.256Z,94443.53
2022-12-01T20:18:49.668Z,94450.69
2022-12-01T20:21:24.497Z,94444.09
2022-12-01T20:23:59.352Z,94453.72
2022-12-01T20:26:31.615Z,94453.25
2022-12-01T20:29:24.497Z,94452.34
2022-12-01T20:31:52.260Z,94451.47
2022-12-01T20:34:24.750Z,94447.50
2022-12-01T20:36:52.144Z,94444.81
2022-12-01T20:39:22.986Z,94450.69
2022-12-01T20:41:50.209Z,94444.81
2022-12-01T20:44:17.853Z,94449.63
2022-12-01T20:46:46.132Z,94450.19
2022-12-01T20:49:13.035Z,94452.06
2022-12-01T20:51:40.757Z,94447.31
2022-12-01T20:56:55.764Z,94453.41
2022-12-01T20:59:22.855Z,94455.38
2022-12-01T21:01:49.666Z,94447.28
2022-12-01T21:04:16.814Z,94451.03
2022-12-01T21:06:44.532Z,94452.09
2022-12-01T21:09:38.183Z,94452.03
2022-12-01T21:12:11.483Z,94451.25
2022-12-01T21:14:44.747Z,94451.53
2022-12-01T21:17:43.878Z,94452.25
2022-12-01T21:20:14.639Z,94450.81
2022-12-01T21:22:46.464Z,94447.56
2022-12-01T21:25:14.475Z,94440.13
2022-12-01T21:27:42.741Z,94445.78
2022-12-01T21:30:22.896Z,94443.16
2022-12-01T21:32:51.167Z,94441.78
2022-12-01T21:35:27.918Z,94444.16
2022-12-01T21:37:59.133Z,94436.03
2022-12-01T21:40:26.069Z,94435.56
2022-12-01T21:42:53.636Z,94430.25
2022-12-01T21:45:27.961Z,94433.69
2022-12-01T21:47:58.553Z,94437.38
2022-12-01T21:50:26.330Z,94434.94
2022-12-01T21:52:53.059Z,94441.47
2022-12-01T21:55:20.749Z,94440.38
2022-12-01T21:57:49.044Z,94434.16
2022-12-01T22:00:28.426Z,94433.81
2022-12-01T22:03:16.349Z,94442.56
2022-12-01T22:06:01.167Z,94441.91
2022-12-01T22:08:58.579Z,94437.50
2022-12-01T22:11:30.142Z,94439.28
2022-12-01T22:14:15.976Z,94443.31
2022-12-01T22:16:44.461Z,94434.47
2022-12-01T22:19:25.532Z,94438.28
2022-12-01T22:22:02.417Z,94441.16
2022-12-01T22:24:35.043Z,94437.94
2022-12-01T22:27:27.911Z,94439.34
2022-12-01T22:30:19.116Z,94442.25
2022-12-01T22:32:46.046Z,94442.09
2022-12-01T22:35:22.100Z,94440.47
2022-12-01T22:37:55.776Z,94442.91
2022-12-01T22:40:37.728Z,94434.03
2022-12-01T22:43:15.290Z,94439.16
2022-12-01T22:46:02.959Z,94444.41
2022-12-01T22:48:39.873Z,94444.84
2022-12-01T22:51:21.472Z,94436.59
2022-12-01T22:54:00.124Z,94434.28
2022-12-01T22:56:31.167Z,94440.16
2022-12-01T22:58:58.465Z,94436.50
2022-12-01T23:01:31.615Z,94438.13
2022-12-01T23:04:19.484Z,94437.16
2022-12-01T23:06:53.037Z,94430.59
2022-12-01T23:09:20.634Z,94432.94
2022-12-01T23:12:00.496Z,94432.16
2022-12-01T23:14:27.971Z,94427.94
2022-12-01T23:17:19.686Z,94430.94
2022-12-01T23:19:48.011Z,94428.72
2022-12-01T23:22:15.565Z,94425.50
2022-12-01T23:24:48.982Z,94425.16
2022-12-01T23:27:16.224Z,94426.38
2022-12-01T23:29:42.946Z,94423.50
2022-12-01T23:32:10.582Z,94424.06
2022-12-01T23:34:38.977Z,94422.50
2022-12-01T23:37:14.982Z,94420.50
2022-12-01T23:39:42.105Z,94414.28
2022-12-01T23:42:09.176Z,94412.72
2022-12-01T23:44:39.052Z,94411.25
2022-12-01T23:47:12.585Z,94406.03
2022-12-01T23:49:39.329Z,94402.06
2022-12-01T23:52:06.544Z,94401.25
2022-12-01T23:54:34.662Z,94398.94
2022-12-01T23:57:07.127Z,94391.16
2022-12-01T23:59:34.213Z,94398.38
